createdAt,value
2018-06-13T00:02:19.482Z,17.30
2018-06-13T00:04:51.667Z,17.30
2018-06-13T00:09:55.067Z,17.30
2018-06-13T00:12:27.020Z,17.30
2018-06-13T00:14:59.063Z,17.30
2018-06-13T00:17:32.176Z,17.30
2018-06-13T00:20:05.264Z,17.20
2018-06-13T00:25:08.670Z,17.10
2018-06-13T00:27:40.625Z,16.90
2018-06-13T00:30:12.647Z,16.70
2018-06-13T00:32:44.596Z,16.60
2018-06-13T00:37:53.001Z,16.40
2018-06-13T00:42:56.667Z,16.30
2018-06-13T00:45:28.743Z,16.30
2018-06-13T00:48:01.136Z,16.40
2018-06-13T00:50:33.176Z,16.40
2018-06-13T00:53:05.383Z,16.40
2018-06-13T00:58:19.247Z,16.30
2018-06-13T01:00:51.240Z,16.20
2018-06-13T01:03:23.223Z,16.30
2018-06-13T01:05:55.024Z,16.20
2018-06-13T01:08:27.119Z,16.10
2018-06-13T01:10:59.012Z,16.00
2018-06-13T01:13:31.089Z,15.90
2018-06-13T01:16:03.302Z,15.90
2018-06-13T01:23:37.904Z,16.00
2018-06-13T01:28:40.871Z,16.00
2018-06-13T01:31:13.780Z,16.10
2018-06-13T01:33:45.657Z,16.00
2018-06-13T01:36:17.606Z,16.10
2018-06-13T01:38:49.547Z,16.00
2018-06-13T01:45:02.236Z,16.00
2018-06-13T01:47:34.243Z,16.00
2018-06-13T01:50:06.211Z,15.90
2018-06-13T01:52:38.370Z,15.90
2018-06-13T01:55:11.218Z,15.80
2018-06-13T01:57:43.252Z,15.70
2018-06-13T02:00:20.538Z,15.50
2018-06-13T02:02:52.552Z,15.40
2018-06-13T02:05:24.537Z,15.30
2018-06-13T02:07:56.558Z,15.20
2018-06-13T02:10:28.482Z,15.20
2018-06-13T02:13:00.967Z,15.10
2018-06-13T02:15:32.788Z,15.00
2018-06-13T02:20:37.152Z,14.90
2018-06-13T02:25:40.757Z,14.80
2018-06-13T02:28:12.654Z,14.80
2018-06-13T02:33:16.035Z,14.90
2018-06-13T02:35:48.142Z,14.90
2018-06-13T02:38:20.372Z,15.00
2018-06-13T02:40:52.875Z,15.10
2018-06-13T02:43:24.916Z,15.10
2018-06-13T02:45:56.861Z,15.10
2018-06-13T02:48:28.972Z,15.10
2018-06-13T02:51:01.196Z,15.10
2018-06-13T02:53:34.160Z,15.10
2018-06-13T02:56:06.404Z,15.10
2018-06-13T02:58:39.085Z,15.10
2018-06-13T03:01:11.111Z,14.80
2018-06-13T03:03:44.112Z,14.70
2018-06-13T03:08:47.199Z,14.60
2018-06-13T03:11:19.124Z,14.50
2018-06-13T03:16:22.373Z,14.50
2018-06-13T03:18:54.241Z,14.60
2018-06-13T03:21:26.143Z,14.60
2018-06-13T03:26:29.629Z,14.80
2018-06-13T03:29:01.780Z,15.00
2018-06-13T03:31:33.930Z,15.20
2018-06-13T03:34:06.653Z,15.40
2018-06-13T03:36:38.643Z,15.50
2018-06-13T03:39:11.063Z,15.60
2018-06-13T03:41:43.577Z,15.80
2018-06-13T03:44:15.506Z,15.80
2018-06-13T03:46:47.624Z,15.90
2018-06-13T03:51:50.992Z,15.70
2018-06-13T03:54:23.011Z,15.60
2018-06-13T03:56:55.172Z,15.50
2018-06-13T03:59:26.991Z,15.50
2018-06-13T04:01:58.915Z,15.50
2018-06-13T04:04:31.022Z,15.40
2018-06-13T04:07:03.409Z,15.30
2018-06-13T04:09:35.365Z,15.20
2018-06-13T04:12:07.429Z,15.40
2018-06-13T04:14:39.404Z,15.50
2018-06-13T04:17:11.373Z,15.60
2018-06-13T04:19:43.351Z,15.60
2018-06-13T04:22:15.280Z,15.80
2018-06-13T04:24:47.225Z,15.80
2018-06-13T04:27:19.300Z,15.70
2018-06-13T04:29:51.366Z,15.90
2018-06-13T04:32:23.488Z,16.20
2018-06-13T04:34:55.319Z,16.50
2018-06-13T04:37:27.560Z,16.70
2018-06-13T04:39:59.500Z,16.80
2018-06-13T04:42:31.954Z,16.80
2018-06-13T04:47:35.591Z,17.10
2018-06-13T04:55:11.503Z,17.30
2018-06-13T04:57:44.617Z,17.10
2018-06-13T05:00:18.709Z,17.00
2018-06-13T05:02:52.833Z,16.80
2018-06-13T05:05:25.268Z,16.80
2018-06-13T05:07:58.204Z,16.80
2018-06-13T05:10:30.271Z,16.80
2018-06-13T05:13:03.047Z,16.90
2018-06-13T05:15:35.425Z,17.10
2018-06-13T05:18:09.339Z,17.40
2018-06-13T05:20:41.713Z,17.60
2018-06-13T05:23:13.684Z,17.60
2018-06-13T05:25:46.518Z,17.60
2018-06-13T05:28:19.494Z,17.50
2018-06-13T05:35:54.311Z,17.30
2018-06-13T05:40:58.345Z,17.30
2018-06-13T05:43:30.783Z,17.20
2018-06-13T05:46:03.102Z,17.20
2018-06-13T05:48:36.079Z,17.00
2018-06-13T05:51:08.148Z,17.00
2018-06-13T05:53:40.132Z,17.00
2018-06-13T05:56:12.103Z,16.90
2018-06-13T06:01:15.616Z,16.90
2018-06-13T06:08:53.795Z,16.90
2018-06-13T06:11:25.915Z,16.90
2018-06-13T06:13:58.732Z,17.00
2018-06-13T06:19:05.341Z,17.00
2018-06-13T06:21:37.723Z,17.00
2018-06-13T06:24:09.776Z,17.10
2018-06-13T06:26:50.311Z,17.10
2018-06-13T06:29:23.112Z,17.10
2018-06-13T06:31:56.511Z,17.10
2018-06-13T06:34:32.340Z,17.20
2018-06-13T06:37:08.694Z,17.20
2018-06-13T06:39:41.164Z,17.10
2018-06-13T06:42:14.475Z,17.10
2018-06-13T06:44:48.907Z,17.20
2018-06-13T06:49:52.143Z,17.20
2018-06-13T06:52:24.171Z,17.20
2018-06-13T06:57:27.499Z,17.30
2018-06-13T06:59:59.687Z,17.20
2018-06-13T07:05:04.833Z,17.30
2018-06-13T07:07:36.799Z,17.30
2018-06-13T07:10:10.469Z,17.30
2018-06-13T07:12:42.435Z,17.30
2018-06-13T07:15:16.287Z,17.40
2018-06-13T07:17:48.568Z,17.40
2018-06-13T07:20:20.913Z,17.40
2018-06-13T07:22:53.116Z,17.40
2018-06-13T07:25:25.487Z,17.30
2018-06-13T07:27:57.923Z,17.30
2018-06-13T07:33:01.982Z,17.30
2018-06-13T07:35:34.616Z,17.30
2018-06-13T07:40:38.068Z,17.20
2018-06-13T07:43:10.091Z,17.10
2018-06-13T07:45:42.171Z,17.10
2018-06-13T07:48:14.211Z,17.10
2018-06-13T07:50:46.189Z,17.00
2018-06-13T07:55:49.234Z,17.00
2018-06-13T07:58:21.245Z,17.00
2018-06-13T08:00:53.470Z,17.00
2018-06-13T08:03:25.740Z,17.00
2018-06-13T08:05:58.579Z,16.90
2018-06-13T08:08:31.550Z,16.80
2018-06-13T08:11:04.565Z,16.70
2018-06-13T08:13:36.432Z,16.70
2018-06-13T08:16:08.414Z,16.60
2018-06-13T08:23:43.172Z,16.50
2018-06-13T08:26:15.282Z,16.30
2018-06-13T08:28:47.469Z,16.30
2018-06-13T08:31:19.463Z,16.10
2018-06-13T08:33:51.615Z,16.10
2018-06-13T08:36:23.900Z,16.10
2018-06-13T08:38:55.792Z,16.00
2018-06-13T08:41:28.031Z,16.10
2018-06-13T08:46:31.500Z,16.20
2018-06-13T08:49:03.795Z,16.40
2018-06-13T08:51:35.839Z,16.60
2018-06-13T08:54:07.709Z,16.70
2018-06-13T08:56:39.942Z,16.90
2018-06-13T08:59:11.984Z,17.00
2018-06-13T09:01:44.085Z,17.10
2018-06-13T09:04:16.983Z,17.20
2018-06-13T09:06:48.953Z,17.20
2018-06-13T09:09:21.090Z,17.40
2018-06-13T09:11:52.969Z,17.40
2018-06-13T09:14:25.043Z,17.40
2018-06-13T09:16:56.930Z,17.30
2018-06-13T09:19:29.269Z,17.30
2018-06-13T09:22:01.492Z,17.30
2018-06-13T09:24:33.317Z,17.40
2018-06-13T09:27:05.798Z,17.50
2018-06-13T09:29:40.301Z,17.60
2018-06-13T09:32:12.588Z,17.80
2018-06-13T09:34:45.003Z,17.80
2018-06-13T09:37:16.943Z,17.90
2018-06-13T09:39:49.273Z,17.70
2018-06-13T09:42:21.101Z,17.70
2018-06-13T09:44:53.665Z,17.60
2018-06-13T09:47:25.785Z,17.50
2018-06-13T09:49:57.664Z,17.60
2018-06-13T09:52:30.013Z,17.70
2018-06-13T09:55:01.995Z,18.00
2018-06-13T09:57:35.069Z,18.30
2018-06-13T10:00:11.876Z,18.50
2018-06-13T10:02:46.028Z,18.50
2018-06-13T10:05:22.006Z,18.40
2018-06-13T10:07:53.960Z,18.70
2018-06-13T10:12:57.500Z,18.40
2018-06-13T10:15:30.069Z,18.20
2018-06-13T10:18:02.332Z,18.20
2018-06-13T10:20:36.518Z,18.10
2018-06-13T10:23:13.269Z,17.90
2018-06-13T10:26:01.286Z,17.60
2018-06-13T10:28:36.679Z,17.60
2018-06-13T10:31:08.773Z,17.60
2018-06-13T10:33:44.100Z,17.50
2018-06-13T10:36:16.338Z,17.30
2018-06-13T10:38:50.100Z,17.20
2018-06-13T10:41:26.368Z,17.20
2018-06-13T10:49:45.494Z,17.30
2018-06-13T10:52:41.284Z,17.70
2018-06-13T10:55:40.125Z,18.30
2018-06-13T11:04:30.971Z,19.40
2018-06-13T11:07:07.613Z,19.10
2018-06-13T11:10:01.850Z,19.20
2018-06-13T11:12:37.166Z,19.30
2018-06-13T11:15:13.685Z,19.70
2018-06-13T11:18:17.007Z,20.00
2018-06-13T11:21:15.410Z,20.50
2018-06-13T11:24:20.785Z,20.60
2018-06-13T11:27:02.218Z,20.10
2018-06-13T11:32:09.966Z,20.00
2018-06-13T11:34:43.991Z,20.30
2018-06-13T11:37:22.814Z,20.30
2018-06-13T11:39:57.133Z,20.10
2018-06-13T11:42:28.994Z,20.00
2018-06-13T11:45:06.699Z,20.00
2018-06-13T11:47:43.124Z,19.90
2018-06-13T11:50:29.732Z,20.00
2018-06-13T11:53:01.784Z,19.90
2018-06-13T11:55:33.902Z,19.80
2018-06-13T11:58:06.096Z,19.70
2018-06-13T12:00:37.800Z,19.50
2018-06-13T12:03:09.501Z,19.20
2018-06-13T12:05:41.381Z,19.10
2018-06-13T12:08:13.287Z,19.20
2018-06-13T12:10:45.116Z,19.40
2018-06-13T12:15:48.269Z,20.10
2018-06-13T12:18:20.174Z,20.30
2018-06-13T12:20:54.801Z,20.50
2018-06-13T12:23:29.923Z,20.70
2018-06-13T12:26:02.355Z,20.90
2018-06-13T12:28:34.493Z,21.20
2018-06-13T12:31:06.331Z,21.30
2018-06-13T12:33:45.110Z,20.90
2018-06-13T12:36:54.523Z,20.90
2018-06-13T12:39:35.145Z,21.20
2018-06-13T12:42:25.152Z,21.20
2018-06-13T12:45:19.783Z,21.30
2018-06-13T12:48:02.028Z,21.30
2018-06-13T12:50:47.159Z,21.10
2018-06-13T12:53:25.929Z,21.10
2018-06-13T12:56:16.653Z,21.20
2018-06-13T13:01:41.516Z,22.30
2018-06-13T13:04:20.397Z,22.40
2018-06-13T13:07:02.821Z,22.20
2018-06-13T13:12:26.159Z,21.60
2018-06-13T13:15:06.237Z,21.40
2018-06-13T13:17:41.176Z,21.40
2018-06-13T13:20:22.774Z,21.00
2018-06-13T13:23:01.369Z,20.50
2018-06-13T13:25:35.501Z,20.20
2018-06-13T13:28:10.251Z,20.10
2018-06-13T13:33:21.327Z,20.90
2018-06-13T13:35:56.520Z,21.40
2018-06-13T13:38:33.283Z,21.60
2018-06-13T13:41:06.377Z,21.80
2018-06-13T13:43:38.551Z,21.80
2018-06-13T13:46:17.873Z,21.40
2018-06-13T13:48:51.292Z,21.20
2018-06-13T13:51:47.378Z,21.00
2018-06-13T13:54:25.079Z,21.10
2018-06-13T13:57:16.259Z,21.50
2018-06-13T14:05:08.868Z,22.00
2018-06-13T14:07:44.452Z,22.50
2018-06-13T14:10:28.348Z,23.10
2018-06-13T14:13:02.021Z,23.50
2018-06-13T14:15:34.068Z,23.30
2018-06-13T14:18:06.367Z,22.90
2018-06-13T14:20:39.625Z,22.70
2018-06-13T14:23:12.645Z,22.30
2018-06-13T14:28:15.908Z,22.20
2018-06-13T14:30:47.829Z,22.20
2018-06-13T14:33:19.920Z,22.40
2018-06-13T14:38:23.143Z,22.50
2018-06-13T14:40:54.029Z,22.30
2018-06-13T14:43:26.023Z,22.10
2018-06-13T14:45:57.891Z,21.80
2018-06-13T14:51:01.382Z,21.40
2018-06-13T14:53:33.386Z,21.30
2018-06-13T14:58:41.395Z,21.00
2018-06-13T15:01:13.250Z,20.90
2018-06-13T15:03:44.986Z,20.70
2018-06-13T15:06:17.139Z,20.30
2018-06-13T15:08:49.015Z,20.10
2018-06-13T15:11:20.838Z,19.90
2018-06-13T15:16:24.390Z,20.00
2018-06-13T15:18:56.888Z,20.10
2018-06-13T15:21:28.770Z,20.20
2018-06-13T15:24:00.802Z,20.30
2018-06-13T15:26:32.576Z,20.40
2018-06-13T15:29:04.560Z,20.60
2018-06-13T15:31:36.395Z,20.80
2018-06-13T15:34:08.092Z,21.00
2018-06-13T15:39:16.250Z,21.00
2018-06-13T15:41:48.251Z,21.10
2018-06-13T15:44:20.174Z,21.20
2018-06-13T15:46:52.231Z,21.20
2018-06-13T15:49:24.399Z,21.20
2018-06-13T15:51:56.123Z,21.10
2018-06-13T15:57:00.083Z,20.70
2018-06-13T15:59:32.038Z,20.30
2018-06-13T16:02:04.375Z,20.00
2018-06-13T16:04:36.435Z,19.80
2018-06-13T16:07:08.772Z,19.60
2018-06-13T16:09:40.856Z,19.30
2018-06-13T16:12:13.029Z,19.20
2018-06-13T16:14:50.680Z,19.10
2018-06-13T16:17:24.082Z,19.00
2018-06-13T16:19:56.072Z,18.90
2018-06-13T16:22:29.444Z,18.80
2018-06-13T16:25:01.538Z,18.70
2018-06-13T16:27:33.740Z,18.70
2018-06-13T16:30:06.036Z,18.70
2018-06-13T16:32:38.041Z,18.70
2018-06-13T16:35:10.817Z,18.60
2018-06-13T16:37:43.411Z,18.60
2018-06-13T16:40:18.621Z,18.40
2018-06-13T16:42:50.937Z,18.40
2018-06-13T16:45:24.863Z,18.40
2018-06-13T16:47:57.387Z,18.40
2018-06-13T16:50:45.427Z,18.40
2018-06-13T16:54:35.979Z,18.40
2018-06-13T16:57:10.022Z,18.30
2018-06-13T16:59:42.234Z,18.20
2018-06-13T17:02:14.320Z,18.10
2018-06-13T17:04:46.049Z,18.00
2018-06-13T17:07:19.699Z,17.80
2018-06-13T17:09:51.757Z,17.60
2018-06-13T17:12:24.376Z,17.30
2018-06-13T17:14:56.736Z,17.00
2018-06-13T17:20:02.304Z,16.70
2018-06-13T17:22:34.721Z,16.70
2018-06-13T17:25:06.914Z,16.70
2018-06-13T17:32:41.780Z,16.50
2018-06-13T17:35:13.947Z,16.40
2018-06-13T17:37:47.060Z,16.30
2018-06-13T17:40:20.966Z,16.30
2018-06-13T17:42:56.946Z,16.20
2018-06-13T17:45:30.385Z,16.10
2018-06-13T17:48:06.011Z,16.00
2018-06-13T17:50:45.887Z,15.90
2018-06-13T17:53:20.827Z,15.80
2018-06-13T17:55:58.110Z,15.70
2018-06-13T17:58:34.669Z,15.60
2018-06-13T18:01:14.140Z,15.60
2018-06-13T18:03:49.154Z,15.60
2018-06-13T18:06:21.651Z,15.50
2018-06-13T18:11:25.471Z,15.40
2018-06-13T18:13:57.432Z,15.30
2018-06-13T18:19:01.099Z,15.30
2018-06-13T18:21:33.644Z,15.30
2018-06-13T18:24:05.853Z,15.30
2018-06-13T18:26:38.191Z,15.30
2018-06-13T18:29:10.173Z,15.40
2018-06-13T18:31:43.102Z,15.40
2018-06-13T18:34:15.400Z,15.40
2018-06-13T18:36:47.438Z,15.50
2018-06-13T18:39:20.946Z,15.60
2018-06-13T18:41:53.824Z,15.50
2018-06-13T18:44:26.830Z,15.50
2018-06-13T18:46:59.026Z,15.60
2018-06-13T18:52:03.613Z,15.60
2018-06-13T18:54:36.247Z,15.60
2018-06-13T18:59:44.883Z,15.80
2018-06-13T19:04:48.263Z,15.70
2018-06-13T19:07:20.115Z,15.80
2018-06-13T19:09:52.138Z,15.80
2018-06-13T19:12:25.150Z,15.80
2018-06-13T19:14:57.441Z,15.60
2018-06-13T19:17:29.726Z,15.50
2018-06-13T19:22:33.387Z,15.50
2018-06-13T19:25:06.331Z,15.40
2018-06-13T19:27:39.414Z,15.40
2018-06-13T19:30:11.461Z,15.50
2018-06-13T19:32:43.894Z,15.40
2018-06-13T19:35:16.288Z,15.40
2018-06-13T19:37:48.337Z,15.30
2018-06-13T19:40:20.358Z,15.30
2018-06-13T19:42:52.192Z,15.40
2018-06-13T19:45:24.538Z,15.50
2018-06-13T19:48:01.268Z,15.50
2018-06-13T19:50:33.069Z,15.40
2018-06-13T19:53:09.975Z,15.20
2018-06-13T19:55:46.454Z,15.10
2018-06-13T19:58:18.402Z,15.10
2018-06-13T20:00:50.200Z,15.00
2018-06-13T20:03:27.503Z,14.90
2018-06-13T20:05:59.412Z,14.90
2018-06-13T20:08:31.399Z,14.90
2018-06-13T20:11:03.329Z,14.90
2018-06-13T20:13:39.956Z,14.90
2018-06-13T20:16:16.758Z,14.90
2018-06-13T20:18:53.423Z,14.90
2018-06-13T20:21:25.614Z,14.90
2018-06-13T20:23:57.612Z,14.90
2018-06-13T20:26:34.302Z,14.90
2018-06-13T20:29:11.043Z,14.90
2018-06-13T20:31:44.805Z,14.90
2018-06-13T20:34:16.634Z,14.90
2018-06-13T20:36:48.480Z,14.90
2018-06-13T20:39:20.320Z,14.90
2018-06-13T20:44:23.757Z,14.90
2018-06-13T20:46:56.230Z,15.00
2018-06-13T20:51:59.809Z,15.10
2018-06-13T20:54:31.602Z,15.20
2018-06-13T20:57:03.569Z,15.20
2018-06-13T20:59:35.248Z,15.30
2018-06-13T21:02:07.505Z,15.30
2018-06-13T21:04:39.822Z,15.30
2018-06-13T21:07:17.332Z,15.30
2018-06-13T21:09:49.839Z,15.40
2018-06-13T21:12:22.362Z,15.30
2018-06-13T21:14:54.756Z,15.30
2018-06-13T21:17:27.054Z,15.30
2018-06-13T21:19:59.095Z,15.30
2018-06-13T21:22:31.270Z,15.30
2018-06-13T21:25:03.411Z,15.30
2018-06-13T21:27:35.414Z,15.30
2018-06-13T21:30:07.864Z,15.20
2018-06-13T21:32:40.167Z,15.30
2018-06-13T21:35:12.486Z,15.30
2018-06-13T21:37:44.408Z,15.30
2018-06-13T21:40:16.258Z,15.30
2018-06-13T21:45:19.579Z,15.30
2018-06-13T21:47:51.772Z,15.30
2018-06-13T21:50:24.169Z,15.30
2018-06-13T21:52:56.235Z,15.20
2018-06-13T21:55:29.504Z,15.20
2018-06-13T21:58:01.852Z,15.20
2018-06-13T22:03:05.496Z,15.20
2018-06-13T22:05:37.377Z,15.20
2018-06-13T22:08:09.089Z,15.20
2018-06-13T22:13:16.385Z,15.10
2018-06-13T22:18:20.461Z,15.20
2018-06-13T22:20:52.650Z,15.20
2018-06-13T22:23:25.421Z,15.30
2018-06-13T22:25:57.473Z,15.30
2018-06-13T22:28:29.736Z,15.30
2018-06-13T22:31:02.902Z,15.30
2018-06-13T22:33:36.497Z,15.40
2018-06-13T22:36:08.680Z,15.30
2018-06-13T22:38:41.067Z,15.30
2018-06-13T22:41:13.357Z,15.30
2018-06-13T22:43:47.326Z,15.30
2018-06-13T22:46:19.884Z,15.30
2018-06-13T22:48:52.823Z,15.30
2018-06-13T22:51:24.896Z,15.30
2018-06-13T22:53:57.062Z,15.30
2018-06-13T22:56:29.235Z,15.20
2018-06-13T22:59:02.446Z,15.20
2018-06-13T23:01:35.140Z,15.20
2018-06-13T23:04:53.484Z,15.20
2018-06-13T23:07:30.007Z,15.20
2018-06-13T23:10:02.280Z,15.20
2018-06-13T23:12:34.212Z,15.20
2018-06-13T23:15:06.540Z,15.20
2018-06-13T23:17:38.824Z,15.30
2018-06-13T23:20:10.768Z,15.30
2018-06-13T23:22:42.959Z,15.30
2018-06-13T23:25:14.802Z,15.40
2018-06-13T23:27:47.001Z,15.40
2018-06-13T23:30:19.333Z,15.30
2018-06-13T23:32:51.410Z,15.30
2018-06-13T23:35:23.639Z,15.30
2018-06-13T23:37:55.735Z,15.20
2018-06-13T23:40:28.140Z,15.20
2018-06-13T23:43:00.030Z,15.20
2018-06-13T23:45:32.414Z,15.20
2018-06-13T23:48:04.682Z,15.20
2018-06-13T23:55:39.449Z,15.30
2018-06-13T23:58:11.529Z,15.30
